NOZ155 ENGM-LHBP
Flight info
| Callsign | NOZ155 |
|---|---|
| Flight time | 2h 8m |
| Altitude | 31000 |
| Route | OKSAT L996 GETPA/N0447F370 L996 KELIN DCT POKEN Z491 XELOL DCT VAGON DCT REGLI DCT REVMA DCT EDEMU |
| Aircraft | B738/M-SDE2E3FGHIRWXY/LB1 |
Departure
| Time | 2026-05-06 12:55 |
|---|---|
| Airport | Oslo-Gardermoen International Airport (ENGM) |
Arrival
| Time | 2026-05-06 15:03 |
|---|---|
| Airport | Budapest Liszt Ferenc International Airport (LHBP) |
| Time | Latitude | Longitude | Altitude | Speed | Heading |
|---|---|---|---|---|---|
| 2026-05-06 12:22 | 60.19721 | 11.10009 | 684 ft | 0 kts | 106° |
| 2026-05-06 12:44 | 60.19726 | 11.09971 | 677 ft | 4 kts | 106° |
| 2026-05-06 12:45 | 60.19733 | 11.09920 | 680 ft | 3 kts | 106° |
| 2026-05-06 12:45 | 60.19734 | 11.09915 | 681 ft | 0 kts | 106° |
| 2026-05-06 12:49 | 60.19731 | 11.09936 | 680 ft | 1 kts | 101° |
| 2026-05-06 12:49 | 60.19737 | 11.09943 | 681 ft | 1 kts | 30° |
| 2026-05-06 12:49 | 60.19745 | 11.09926 | 676 ft | 5 kts | 312° |
| 2026-05-06 12:49 | 60.19797 | 11.09828 | 680 ft | 14 kts | 340° |
| 2026-05-06 12:50 | 60.19888 | 11.09871 | 682 ft | 14 kts | 17° |
| 2026-05-06 12:50 | 60.19977 | 11.09893 | 683 ft | 13 kts | 330° |
| 2026-05-06 12:50 | 60.20013 | 11.09725 | 681 ft | 14 kts | 285° |
| 2026-05-06 12:50 | 60.20049 | 11.09470 | 681 ft | 23 kts | 285° |
| 2026-05-06 12:51 | 60.20098 | 11.09120 | 677 ft | 28 kts | 285° |
| 2026-05-06 12:51 | 60.20167 | 11.08903 | 680 ft | 16 kts | 4° |
| 2026-05-06 12:51 | 60.20285 | 11.08966 | 681 ft | 22 kts | 15° |
| 2026-05-06 12:51 | 60.20452 | 11.09062 | 679 ft | 26 kts | 16° |
| 2026-05-06 12:52 | 60.20625 | 11.09162 | 682 ft | 25 kts | 16° |
| 2026-05-06 12:52 | 60.20786 | 11.09256 | 683 ft | 23 kts | 16° |
| 2026-05-06 12:52 | 60.20938 | 11.09343 | 680 ft | 22 kts | 16° |
| 2026-05-06 12:52 | 60.21090 | 11.09431 | 685 ft | 23 kts | 16° |
| 2026-05-06 12:53 | 60.21252 | 11.09524 | 685 ft | 25 kts | 16° |
| 2026-05-06 12:53 | 60.21414 | 11.09618 | 682 ft | 23 kts | 15° |
| 2026-05-06 12:53 | 60.21544 | 11.09520 | 682 ft | 23 kts | 291° |
| 2026-05-06 12:53 | 60.21585 | 11.09234 | 679 ft | 16 kts | 282° |
| 2026-05-06 12:54 | 60.21522 | 11.09118 | 683 ft | 14 kts | 196° |
| 2026-05-06 12:54 | 60.21395 | 11.09045 | 682 ft | 46 kts | 196° |
| 2026-05-06 12:54 | 60.20841 | 11.08725 | 676 ft | 117 kts | 196° |
| 2026-05-06 12:54 | 60.19862 | 11.08155 | 676 ft | 174 kts | 197° |
| 2026-05-06 12:55 | 60.18750 | 11.07519 | 1223 ft | 178 kts | 198° |
| 2026-05-06 12:55 | 60.17659 | 11.06933 | 2284 ft | 165 kts | 196° |
| 2026-05-06 12:55 | 60.16623 | 11.06096 | 3036 ft | 166 kts | 226° |
| 2026-05-06 12:55 | 60.16218 | 11.04749 | 3299 ft | 183 kts | 255° |
| 2026-05-06 12:56 | 60.16089 | 11.03798 | 3501 ft | 192 kts | 253° |
| 2026-05-06 12:56 | 60.15542 | 11.01259 | 3739 ft | 218 kts | 243° |
| 2026-05-06 12:56 | 60.14861 | 10.98421 | 4134 ft | 229 kts | 246° |
| 2026-05-06 12:56 | 60.14330 | 10.95296 | 4422 ft | 248 kts | 265° |
| 2026-05-06 12:57 | 60.14391 | 10.91787 | 5049 ft | 256 kts | 278° |
| 2026-05-06 12:57 | 60.14709 | 10.88258 | 5946 ft | 256 kts | 280° |
| 2026-05-06 12:57 | 60.15094 | 10.84789 | 6755 ft | 261 kts | 289° |
| 2026-05-06 12:57 | 60.16075 | 10.81712 | 7521 ft | 266 kts | 315° |
| 2026-05-06 12:58 | 60.17652 | 10.79732 | 8320 ft | 272 kts | 340° |
| 2026-05-06 12:58 | 60.19531 | 10.79033 | 9095 ft | 277 kts | 352° |
| 2026-05-06 12:58 | 60.21473 | 10.79098 | 9820 ft | 285 kts | 13° |
| 2026-05-06 12:58 | 60.23256 | 10.80924 | 10320 ft | 301 kts | 40° |
| 2026-05-06 12:59 | 60.24512 | 10.84454 | 10549 ft | 324 kts | 64° |
| 2026-05-06 12:59 | 60.25436 | 10.88761 | 10777 ft | 344 kts | 67° |
| 2026-05-06 12:59 | 60.26373 | 10.93279 | 11259 ft | 355 kts | 66° |
| 2026-05-06 12:59 | 60.27320 | 10.97725 | 11876 ft | 361 kts | 66° |
| 2026-05-06 13:00 | 60.28102 | 11.02514 | 12463 ft | 370 kts | 82° |
| 2026-05-06 13:00 | 60.27901 | 11.07690 | 13106 ft | 374 kts | 110° |
| 2026-05-06 13:00 | 60.26656 | 11.12251 | 13765 ft | 373 kts | 132° |
| 2026-05-06 13:00 | 60.24882 | 11.16025 | 14393 ft | 372 kts | 144° |
| 2026-05-06 13:01 | 60.22798 | 11.19079 | 15122 ft | 369 kts | 155° |
| 2026-05-06 13:01 | 60.20514 | 11.21366 | 15831 ft | 368 kts | 162° |
| 2026-05-06 13:01 | 60.18153 | 11.23428 | 16554 ft | 371 kts | 164° |
| 2026-05-06 13:01 | 60.15767 | 11.25453 | 17264 ft | 374 kts | 164° |
| 2026-05-06 13:02 | 60.13403 | 11.27463 | 18391 ft | 363 kts | 165° |
| 2026-05-06 13:02 | 60.11092 | 11.29441 | 19126 ft | 365 kts | 165° |
| 2026-05-06 13:02 | 60.08695 | 11.31480 | 19350 ft | 381 kts | 165° |
| 2026-05-06 13:02 | 60.06226 | 11.33590 | 19751 ft | 389 kts | 165° |
| 2026-05-06 13:03 | 60.03726 | 11.35745 | 20366 ft | 392 kts | 165° |
| 2026-05-06 13:03 | 60.01215 | 11.37918 | 21000 ft | 394 kts | 165° |
| 2026-05-06 13:03 | 59.98692 | 11.40102 | 21594 ft | 397 kts | 165° |
| 2026-05-06 13:03 | 59.96150 | 11.42299 | 22183 ft | 400 kts | 165° |
| 2026-05-06 13:04 | 59.93587 | 11.44508 | 22742 ft | 403 kts | 166° |
| 2026-05-06 13:04 | 59.91009 | 11.46727 | 23293 ft | 406 kts | 166° |
| 2026-05-06 13:04 | 59.88410 | 11.48960 | 23804 ft | 408 kts | 166° |
| 2026-05-06 13:04 | 59.85808 | 11.51195 | 24316 ft | 407 kts | 166° |
| 2026-05-06 13:05 | 59.83199 | 11.53431 | 24794 ft | 409 kts | 166° |
| 2026-05-06 13:05 | 59.80569 | 11.55677 | 25218 ft | 412 kts | 166° |
| 2026-05-06 13:05 | 59.77932 | 11.57925 | 25658 ft | 414 kts | 166° |
| 2026-05-06 13:05 | 59.75281 | 11.60182 | 26116 ft | 416 kts | 166° |
| 2026-05-06 13:06 | 59.72616 | 11.62447 | 26557 ft | 417 kts | 166° |
| 2026-05-06 13:06 | 59.69939 | 11.64719 | 26975 ft | 419 kts | 166° |
| 2026-05-06 13:06 | 59.67253 | 11.66994 | 27386 ft | 421 kts | 166° |
| 2026-05-06 13:06 | 59.64555 | 11.69275 | 27787 ft | 423 kts | 166° |
| 2026-05-06 13:07 | 59.61840 | 11.71567 | 28160 ft | 425 kts | 166° |
| 2026-05-06 13:07 | 59.59112 | 11.73865 | 28534 ft | 427 kts | 166° |
| 2026-05-06 13:07 | 59.56372 | 11.76170 | 28901 ft | 429 kts | 166° |
| 2026-05-06 13:07 | 59.53620 | 11.78479 | 29180 ft | 433 kts | 166° |
| 2026-05-06 13:08 | 59.50865 | 11.80788 | 29523 ft | 435 kts | 166° |
| 2026-05-06 13:08 | 59.48045 | 11.83151 | 29927 ft | 435 kts | 166° |
| 2026-05-06 13:08 | 59.45302 | 11.85448 | 30346 ft | 434 kts | 166° |
| 2026-05-06 13:08 | 59.42538 | 11.87758 | 30772 ft | 431 kts | 166° |
| 2026-05-06 13:09 | 59.39765 | 11.90065 | 30919 ft | 433 kts | 166° |
| 2026-05-06 13:09 | 59.34185 | 11.94217 | 30942 ft | 420 kts | 175° |
| 2026-05-06 13:10 | 59.28509 | 11.95381 | 30947 ft | 403 kts | 191° |
| 2026-05-06 13:10 | 59.22918 | 11.94691 | 30950 ft | 403 kts | 191° |
| 2026-05-06 13:11 | 59.17325 | 11.94033 | 30953 ft | 403 kts | 191° |
| 2026-05-06 13:11 | 59.11711 | 11.93422 | 30944 ft | 404 kts | 191° |
| 2026-05-06 13:12 | 59.06098 | 11.92823 | 30943 ft | 404 kts | 191° |
| 2026-05-06 13:12 | 59.00478 | 11.92223 | 30974 ft | 406 kts | 191° |
| 2026-05-06 13:12 | 58.97656 | 11.91917 | 31303 ft | 405 kts | 190° |
| 2026-05-06 13:13 | 58.94852 | 11.91617 | 31739 ft | 403 kts | 190° |
| 2026-05-06 13:13 | 58.92064 | 11.91319 | 32165 ft | 400 kts | 190° |
| 2026-05-06 13:13 | 58.89297 | 11.91021 | 32572 ft | 398 kts | 190° |
| 2026-05-06 13:13 | 58.86529 | 11.90723 | 32899 ft | 398 kts | 190° |
| 2026-05-06 13:14 | 58.83761 | 11.90426 | 33212 ft | 398 kts | 190° |
| 2026-05-06 13:14 | 58.80986 | 11.90260 | 33549 ft | 402 kts | 186° |
| 2026-05-06 13:14 | 58.78183 | 11.90800 | 33909 ft | 407 kts | 179° |
| 2026-05-06 13:14 | 58.75382 | 11.91608 | 34182 ft | 407 kts | 179° |
| 2026-05-06 13:15 | 58.72574 | 11.92416 | 34344 ft | 410 kts | 179° |
| 2026-05-06 13:15 | 58.69743 | 11.93213 | 34532 ft | 411 kts | 179° |
| 2026-05-06 13:15 | 58.67109 | 11.93941 | 34736 ft | 412 kts | 179° |
| 2026-05-06 13:15 | 58.64271 | 11.94716 | 34964 ft | 412 kts | 179° |
| 2026-05-06 13:16 | 58.61462 | 11.95477 | 35144 ft | 414 kts | 179° |
| 2026-05-06 13:16 | 58.58609 | 11.96247 | 35331 ft | 415 kts | 179° |
| 2026-05-06 13:16 | 58.55747 | 11.97019 | 35560 ft | 415 kts | 179° |
| 2026-05-06 13:16 | 58.52882 | 11.97791 | 35759 ft | 416 kts | 179° |
| 2026-05-06 13:17 | 58.50015 | 11.98562 | 35953 ft | 417 kts | 179° |
| 2026-05-06 13:17 | 58.47135 | 11.99335 | 36153 ft | 418 kts | 179° |
| 2026-05-06 13:17 | 58.44256 | 12.00108 | 36360 ft | 418 kts | 179° |
| 2026-05-06 13:17 | 58.41368 | 12.00882 | 36537 ft | 419 kts | 178° |
| 2026-05-06 13:18 | 58.38475 | 12.01656 | 36728 ft | 420 kts | 178° |
| 2026-05-06 13:18 | 58.35581 | 12.02430 | 36916 ft | 421 kts | 178° |
| 2026-05-06 13:18 | 58.32673 | 12.03204 | 36919 ft | 425 kts | 178° |
| 2026-05-06 13:19 | 58.26773 | 12.04772 | 36945 ft | 432 kts | 178° |
| 2026-05-06 13:19 | 58.20887 | 12.07982 | 36943 ft | 450 kts | 163° |
| 2026-05-06 13:20 | 58.15093 | 12.12720 | 36936 ft | 456 kts | 163° |
| 2026-05-06 13:20 | 58.09266 | 12.17507 | 36933 ft | 458 kts | 163° |
| 2026-05-06 13:21 | 58.03407 | 12.22243 | 36930 ft | 458 kts | 163° |
| 2026-05-06 13:21 | 57.97541 | 12.26930 | 36937 ft | 458 kts | 163° |
| 2026-05-06 13:22 | 57.91680 | 12.31585 | 36930 ft | 457 kts | 163° |
| 2026-05-06 13:22 | 57.85830 | 12.36215 | 36924 ft | 455 kts | 163° |
| 2026-05-06 13:23 | 57.79997 | 12.40815 | 36933 ft | 454 kts | 163° |
| 2026-05-06 13:23 | 57.74182 | 12.45387 | 36928 ft | 453 kts | 163° |
| 2026-05-06 13:24 | 57.68375 | 12.49935 | 36936 ft | 452 kts | 163° |
| 2026-05-06 13:24 | 57.62584 | 12.54456 | 36933 ft | 451 kts | 163° |
| 2026-05-06 13:25 | 57.56800 | 12.58956 | 36928 ft | 450 kts | 163° |
| 2026-05-06 13:25 | 57.51056 | 12.63408 | 36921 ft | 450 kts | 163° |
| 2026-05-06 13:26 | 57.45288 | 12.67864 | 36913 ft | 449 kts | 163° |
| 2026-05-06 13:26 | 57.39515 | 12.72310 | 36916 ft | 449 kts | 163° |
| 2026-05-06 13:27 | 57.33744 | 12.76737 | 36910 ft | 449 kts | 163° |
| 2026-05-06 13:27 | 57.27968 | 12.81154 | 36898 ft | 449 kts | 163° |
| 2026-05-06 13:28 | 57.22194 | 12.85554 | 36913 ft | 449 kts | 163° |
| 2026-05-06 13:28 | 57.17386 | 12.89207 | 36910 ft | 449 kts | 163° |
| 2026-05-06 13:29 | 57.11608 | 12.93584 | 36905 ft | 449 kts | 163° |
| 2026-05-06 13:29 | 57.05822 | 12.97951 | 36912 ft | 449 kts | 163° |
| 2026-05-06 13:30 | 57.00032 | 13.02307 | 36912 ft | 450 kts | 163° |
| 2026-05-06 13:30 | 56.94242 | 13.06648 | 36918 ft | 450 kts | 163° |
| 2026-05-06 13:31 | 56.88445 | 13.10980 | 36922 ft | 450 kts | 163° |
| 2026-05-06 13:31 | 56.82644 | 13.15300 | 36931 ft | 450 kts | 163° |
| 2026-05-06 13:32 | 56.76842 | 13.19606 | 36924 ft | 450 kts | 162° |
| 2026-05-06 13:32 | 56.71037 | 13.23901 | 36929 ft | 450 kts | 162° |
| 2026-05-06 13:33 | 56.65234 | 13.28180 | 36928 ft | 450 kts | 162° |
| 2026-05-06 13:33 | 56.59431 | 13.32445 | 36929 ft | 449 kts | 162° |
| 2026-05-06 13:34 | 56.53634 | 13.36690 | 36919 ft | 449 kts | 162° |
| 2026-05-06 13:34 | 56.47838 | 13.40920 | 36920 ft | 449 kts | 162° |
| 2026-05-06 13:35 | 56.42091 | 13.45103 | 36921 ft | 448 kts | 162° |
| 2026-05-06 13:35 | 56.36306 | 13.49298 | 36932 ft | 448 kts | 162° |
| 2026-05-06 13:36 | 56.30525 | 13.53477 | 36923 ft | 448 kts | 162° |
| 2026-05-06 13:36 | 56.24999 | 13.57458 | 36940 ft | 447 kts | 162° |
| 2026-05-06 13:37 | 56.19360 | 13.61508 | 36925 ft | 447 kts | 162° |
| 2026-05-06 13:37 | 56.13575 | 13.65650 | 36938 ft | 447 kts | 162° |
| 2026-05-06 13:38 | 56.07791 | 13.69778 | 36939 ft | 447 kts | 162° |
| 2026-05-06 13:38 | 56.02009 | 13.73890 | 36938 ft | 447 kts | 162° |
| 2026-05-06 13:39 | 55.96217 | 13.77997 | 36938 ft | 448 kts | 162° |
| 2026-05-06 13:39 | 55.90422 | 13.82093 | 36942 ft | 448 kts | 162° |
| 2026-05-06 13:40 | 55.84637 | 13.86169 | 36941 ft | 448 kts | 162° |
| 2026-05-06 13:40 | 55.78827 | 13.90249 | 36942 ft | 448 kts | 162° |
| 2026-05-06 13:41 | 55.73020 | 13.94314 | 36937 ft | 449 kts | 162° |
| 2026-05-06 13:41 | 55.67210 | 13.98368 | 36938 ft | 449 kts | 162° |
| 2026-05-06 13:42 | 55.61404 | 14.02406 | 36936 ft | 449 kts | 162° |
| 2026-05-06 13:42 | 55.55576 | 14.06446 | 36932 ft | 449 kts | 162° |
| 2026-05-06 13:43 | 55.49747 | 14.10474 | 36933 ft | 450 kts | 162° |
| 2026-05-06 13:43 | 55.43920 | 14.14488 | 36930 ft | 450 kts | 162° |
| 2026-05-06 13:44 | 55.38087 | 14.18494 | 36928 ft | 450 kts | 162° |
| 2026-05-06 13:44 | 55.32251 | 14.22488 | 36924 ft | 450 kts | 162° |
| 2026-05-06 13:45 | 55.26409 | 14.26474 | 36925 ft | 451 kts | 162° |
| 2026-05-06 13:45 | 55.17642 | 14.32434 | 36918 ft | 451 kts | 162° |
| 2026-05-06 13:46 | 55.11790 | 14.36396 | 36914 ft | 451 kts | 162° |
| 2026-05-06 13:46 | 55.05934 | 14.40349 | 36913 ft | 451 kts | 162° |
| 2026-05-06 13:47 | 55.00077 | 14.44289 | 36909 ft | 451 kts | 162° |
| 2026-05-06 13:47 | 54.94216 | 14.48221 | 36909 ft | 451 kts | 162° |
| 2026-05-06 13:48 | 54.88356 | 14.52140 | 36909 ft | 452 kts | 162° |
| 2026-05-06 13:48 | 54.82488 | 14.56053 | 36905 ft | 452 kts | 162° |
| 2026-05-06 13:49 | 54.76590 | 14.59794 | 36902 ft | 451 kts | 163° |
| 2026-05-06 13:49 | 54.70670 | 14.63396 | 36895 ft | 451 kts | 163° |
| 2026-05-06 13:50 | 54.64743 | 14.67025 | 36890 ft | 452 kts | 163° |
| 2026-05-06 13:50 | 54.58823 | 14.70659 | 36883 ft | 452 kts | 163° |
| 2026-05-06 13:51 | 54.52892 | 14.74280 | 36885 ft | 452 kts | 164° |
| 2026-05-06 13:51 | 54.46961 | 14.77884 | 36882 ft | 452 kts | 164° |
| 2026-05-06 13:52 | 54.41031 | 14.81480 | 36871 ft | 452 kts | 164° |
| 2026-05-06 13:52 | 54.35099 | 14.85069 | 36865 ft | 452 kts | 164° |
| 2026-05-06 13:53 | 54.29201 | 14.88625 | 36862 ft | 452 kts | 164° |
| 2026-05-06 13:53 | 54.23387 | 14.92789 | 36862 ft | 455 kts | 159° |
| 2026-05-06 13:54 | 54.17674 | 14.97453 | 36846 ft | 455 kts | 158° |
| 2026-05-06 13:54 | 54.11964 | 15.02124 | 36845 ft | 455 kts | 158° |
| 2026-05-06 13:55 | 54.06245 | 15.06730 | 36842 ft | 455 kts | 159° |
| 2026-05-06 13:55 | 54.00517 | 15.11294 | 36836 ft | 454 kts | 159° |
| 2026-05-06 13:56 | 53.94789 | 15.15837 | 36829 ft | 454 kts | 159° |
| 2026-05-06 13:56 | 53.89067 | 15.20360 | 36827 ft | 454 kts | 159° |
| 2026-05-06 13:57 | 53.83332 | 15.24883 | 36828 ft | 454 kts | 159° |
| 2026-05-06 13:57 | 53.77604 | 15.29386 | 36822 ft | 454 kts | 159° |
| 2026-05-06 13:58 | 53.71885 | 15.33870 | 36816 ft | 453 kts | 159° |
| 2026-05-06 13:58 | 53.66168 | 15.38338 | 36815 ft | 453 kts | 159° |
| 2026-05-06 13:59 | 53.60451 | 15.42793 | 36808 ft | 452 kts | 160° |
| 2026-05-06 13:59 | 53.54738 | 15.47231 | 36806 ft | 452 kts | 160° |
| 2026-05-06 14:00 | 53.49060 | 15.51629 | 36796 ft | 452 kts | 160° |
| 2026-05-06 14:00 | 53.43348 | 15.56040 | 36797 ft | 452 kts | 160° |
| 2026-05-06 14:01 | 53.37632 | 15.60441 | 36803 ft | 452 kts | 160° |
| 2026-05-06 14:01 | 53.31922 | 15.64824 | 36787 ft | 452 kts | 160° |
| 2026-05-06 14:02 | 53.26198 | 15.69206 | 36793 ft | 452 kts | 160° |
| 2026-05-06 14:02 | 53.20483 | 15.73568 | 36789 ft | 452 kts | 160° |
| 2026-05-06 14:03 | 53.14769 | 15.77915 | 36789 ft | 451 kts | 160° |
| 2026-05-06 14:03 | 53.09058 | 15.82248 | 36784 ft | 451 kts | 160° |
| 2026-05-06 14:04 | 53.03344 | 15.86571 | 36784 ft | 451 kts | 160° |
| 2026-05-06 14:04 | 52.97636 | 15.90876 | 36781 ft | 451 kts | 160° |
| 2026-05-06 14:05 | 52.91925 | 15.95171 | 36784 ft | 450 kts | 160° |
| 2026-05-06 14:05 | 52.86216 | 15.99451 | 36793 ft | 450 kts | 160° |
| 2026-05-06 14:06 | 52.80504 | 16.03722 | 36779 ft | 451 kts | 160° |
| 2026-05-06 14:06 | 52.74782 | 16.07988 | 36790 ft | 451 kts | 160° |
| 2026-05-06 14:07 | 52.69061 | 16.12241 | 36781 ft | 451 kts | 160° |
| 2026-05-06 14:07 | 52.63501 | 16.16362 | 36772 ft | 452 kts | 161° |
| 2026-05-06 14:08 | 52.57808 | 16.20570 | 36776 ft | 452 kts | 161° |
| 2026-05-06 14:08 | 52.52065 | 16.24803 | 36775 ft | 452 kts | 161° |
| 2026-05-06 14:09 | 52.46321 | 16.29025 | 36771 ft | 453 kts | 161° |
| 2026-05-06 14:09 | 52.40564 | 16.33244 | 36765 ft | 453 kts | 161° |
| 2026-05-06 14:10 | 52.34810 | 16.37449 | 36767 ft | 453 kts | 161° |
| 2026-05-06 14:10 | 52.29054 | 16.41644 | 36768 ft | 453 kts | 161° |
| 2026-05-06 14:11 | 52.23301 | 16.45824 | 36764 ft | 452 kts | 161° |
| 2026-05-06 14:11 | 52.17558 | 16.49985 | 36759 ft | 451 kts | 161° |
| 2026-05-06 14:12 | 52.11823 | 16.54129 | 36754 ft | 451 kts | 161° |
| 2026-05-06 14:12 | 52.06095 | 16.58255 | 36752 ft | 450 kts | 161° |
| 2026-05-06 14:13 | 52.00373 | 16.62366 | 36747 ft | 449 kts | 161° |
| 2026-05-06 14:13 | 51.94664 | 16.66455 | 36745 ft | 449 kts | 161° |
| 2026-05-06 14:14 | 51.88957 | 16.70532 | 36744 ft | 448 kts | 161° |
| 2026-05-06 14:14 | 51.83253 | 16.74596 | 36740 ft | 448 kts | 162° |
| 2026-05-06 14:15 | 51.77546 | 16.78650 | 36741 ft | 448 kts | 162° |
| 2026-05-06 14:15 | 51.72807 | 16.82008 | 36743 ft | 448 kts | 162° |
| 2026-05-06 14:16 | 51.67101 | 16.86042 | 36741 ft | 447 kts | 162° |
| 2026-05-06 14:16 | 51.61395 | 16.90063 | 36735 ft | 448 kts | 162° |
| 2026-05-06 14:17 | 51.55689 | 16.94075 | 36737 ft | 448 kts | 162° |
| 2026-05-06 14:17 | 51.49970 | 16.98084 | 36738 ft | 448 kts | 162° |
| 2026-05-06 14:18 | 51.44251 | 17.02082 | 36740 ft | 449 kts | 162° |
| 2026-05-06 14:18 | 51.38522 | 17.06078 | 36744 ft | 449 kts | 162° |
| 2026-05-06 14:19 | 51.32788 | 17.10067 | 36754 ft | 450 kts | 162° |
| 2026-05-06 14:19 | 51.27039 | 17.14086 | 36753 ft | 451 kts | 161° |
| 2026-05-06 14:20 | 51.21301 | 17.18155 | 36764 ft | 451 kts | 161° |
| 2026-05-06 14:20 | 51.15559 | 17.22223 | 36757 ft | 452 kts | 161° |
| 2026-05-06 14:21 | 51.09806 | 17.26282 | 36752 ft | 452 kts | 161° |
| 2026-05-06 14:21 | 51.04051 | 17.30326 | 36762 ft | 453 kts | 161° |
| 2026-05-06 14:22 | 50.98288 | 17.34362 | 36752 ft | 453 kts | 162° |
| 2026-05-06 14:22 | 50.92525 | 17.38389 | 36755 ft | 453 kts | 162° |
| 2026-05-06 14:23 | 50.86755 | 17.42409 | 36762 ft | 453 kts | 162° |
| 2026-05-06 14:23 | 50.81032 | 17.46386 | 36764 ft | 452 kts | 162° |
| 2026-05-06 14:24 | 50.75266 | 17.50382 | 36761 ft | 452 kts | 162° |
| 2026-05-06 14:24 | 50.69506 | 17.54363 | 36767 ft | 452 kts | 162° |
| 2026-05-06 14:25 | 50.63752 | 17.58330 | 36770 ft | 451 kts | 162° |
| 2026-05-06 14:25 | 50.58002 | 17.62282 | 36770 ft | 451 kts | 162° |
| 2026-05-06 14:26 | 50.52264 | 17.66217 | 36774 ft | 450 kts | 162° |
| 2026-05-06 14:26 | 50.46522 | 17.70143 | 36776 ft | 449 kts | 162° |
| 2026-05-06 14:27 | 50.40789 | 17.74053 | 36782 ft | 449 kts | 162° |
| 2026-05-06 14:27 | 50.35068 | 17.77944 | 36781 ft | 449 kts | 162° |
| 2026-05-06 14:28 | 50.29341 | 17.81830 | 36789 ft | 448 kts | 162° |
| 2026-05-06 14:28 | 50.23615 | 17.85704 | 36792 ft | 448 kts | 162° |
| 2026-05-06 14:29 | 50.17897 | 17.89564 | 36792 ft | 448 kts | 162° |
| 2026-05-06 14:29 | 50.12184 | 17.93411 | 36789 ft | 447 kts | 162° |
| 2026-05-06 14:30 | 50.06465 | 17.97251 | 36794 ft | 447 kts | 162° |
| 2026-05-06 14:30 | 50.01003 | 18.02054 | 36802 ft | 459 kts | 147° |
| 2026-05-06 14:31 | 49.96145 | 18.08563 | 36810 ft | 462 kts | 144° |
| 2026-05-06 14:31 | 49.91313 | 18.15157 | 36822 ft | 463 kts | 145° |
| 2026-05-06 14:32 | 49.86448 | 18.21690 | 36819 ft | 463 kts | 145° |
| 2026-05-06 14:32 | 49.81598 | 18.28136 | 36818 ft | 462 kts | 145° |
| 2026-05-06 14:33 | 49.76675 | 18.34649 | 36820 ft | 462 kts | 145° |
| 2026-05-06 14:33 | 49.71784 | 18.41105 | 36826 ft | 462 kts | 145° |
| 2026-05-06 14:34 | 49.66885 | 18.47556 | 36823 ft | 463 kts | 145° |
| 2026-05-06 14:34 | 49.61981 | 18.53998 | 36832 ft | 463 kts | 145° |
| 2026-05-06 14:35 | 49.57063 | 18.60440 | 36830 ft | 464 kts | 145° |
| 2026-05-06 14:35 | 49.52177 | 18.66826 | 36842 ft | 464 kts | 145° |
| 2026-05-06 14:36 | 49.47004 | 18.72586 | 36855 ft | 455 kts | 156° |
| 2026-05-06 14:36 | 49.41458 | 18.77298 | 36845 ft | 456 kts | 157° |
| 2026-05-06 14:37 | 49.35888 | 18.81968 | 36857 ft | 456 kts | 156° |
| 2026-05-06 14:37 | 49.30325 | 18.86686 | 36853 ft | 458 kts | 156° |
| 2026-05-06 14:38 | 49.24859 | 18.91361 | 36833 ft | 439 kts | 156° |
| 2026-05-06 14:38 | 49.19566 | 18.95882 | 36869 ft | 435 kts | 156° |
| 2026-05-06 14:39 | 49.16907 | 18.98139 | 36520 ft | 439 kts | 156° |
| 2026-05-06 14:39 | 49.14256 | 19.00390 | 36200 ft | 433 kts | 156° |
| 2026-05-06 14:39 | 49.11636 | 19.02615 | 35805 ft | 429 kts | 156° |
| 2026-05-06 14:39 | 49.09039 | 19.04818 | 35408 ft | 425 kts | 157° |
| 2026-05-06 14:40 | 49.06430 | 19.06878 | 34944 ft | 419 kts | 165° |
| 2026-05-06 14:40 | 49.03666 | 19.08149 | 34372 ft | 412 kts | 175° |
| 2026-05-06 14:40 | 49.00848 | 19.08717 | 33843 ft | 406 kts | 185° |
| 2026-05-06 14:40 | 48.98042 | 19.08708 | 33368 ft | 401 kts | 186° |
| 2026-05-06 14:41 | 48.95264 | 19.08639 | 33008 ft | 396 kts | 186° |
| 2026-05-06 14:41 | 48.92520 | 19.08565 | 32623 ft | 392 kts | 186° |
| 2026-05-06 14:41 | 48.89907 | 19.08499 | 32240 ft | 389 kts | 186° |
| 2026-05-06 14:41 | 48.87245 | 19.08118 | 31789 ft | 381 kts | 196° |
| 2026-05-06 14:42 | 48.84731 | 19.07010 | 31406 ft | 373 kts | 204° |
| 2026-05-06 14:42 | 48.82321 | 19.05615 | 30932 ft | 367 kts | 205° |
| 2026-05-06 14:42 | 48.79957 | 19.04220 | 30346 ft | 363 kts | 204° |
| 2026-05-06 14:42 | 48.77613 | 19.02837 | 29713 ft | 360 kts | 204° |
| 2026-05-06 14:43 | 48.75291 | 19.01477 | 28985 ft | 356 kts | 204° |
| 2026-05-06 14:43 | 48.72983 | 19.00135 | 28285 ft | 353 kts | 203° |
| 2026-05-06 14:43 | 48.70698 | 18.98815 | 27602 ft | 351 kts | 203° |
| 2026-05-06 14:43 | 48.68422 | 18.97504 | 26956 ft | 348 kts | 203° |
| 2026-05-06 14:44 | 48.66171 | 18.96212 | 26333 ft | 345 kts | 203° |
| 2026-05-06 14:44 | 48.63935 | 18.94931 | 25721 ft | 342 kts | 203° |
| 2026-05-06 14:44 | 48.61715 | 18.93660 | 25113 ft | 340 kts | 203° |
| 2026-05-06 14:45 | 48.57324 | 18.91153 | 23962 ft | 335 kts | 202° |
| 2026-05-06 14:45 | 48.55154 | 18.89915 | 23376 ft | 332 kts | 202° |
| 2026-05-06 14:45 | 48.53000 | 18.88688 | 22715 ft | 329 kts | 202° |
| 2026-05-06 14:45 | 48.50874 | 18.87479 | 22146 ft | 325 kts | 202° |
| 2026-05-06 14:46 | 48.48777 | 18.86285 | 21590 ft | 320 kts | 202° |
| 2026-05-06 14:46 | 48.46707 | 18.85109 | 21012 ft | 317 kts | 202° |
| 2026-05-06 14:46 | 48.44651 | 18.83941 | 20446 ft | 314 kts | 202° |
| 2026-05-06 14:46 | 48.42614 | 18.82789 | 19926 ft | 311 kts | 202° |
| 2026-05-06 14:47 | 48.40600 | 18.81648 | 19406 ft | 308 kts | 202° |
| 2026-05-06 14:47 | 48.38633 | 18.80533 | 18900 ft | 305 kts | 202° |
| 2026-05-06 14:47 | 48.36634 | 18.79402 | 18375 ft | 302 kts | 201° |
| 2026-05-06 14:47 | 48.34701 | 18.78310 | 17833 ft | 299 kts | 201° |
| 2026-05-06 14:48 | 48.32766 | 18.77217 | 17360 ft | 294 kts | 201° |
| 2026-05-06 14:48 | 48.30874 | 18.76150 | 16989 ft | 286 kts | 202° |
| 2026-05-06 14:48 | 48.29034 | 18.75112 | 16639 ft | 279 kts | 202° |
| 2026-05-06 14:48 | 48.27243 | 18.74103 | 16324 ft | 272 kts | 202° |
| 2026-05-06 14:49 | 48.25481 | 18.73111 | 16029 ft | 269 kts | 202° |
| 2026-05-06 14:49 | 48.23734 | 18.72128 | 15731 ft | 269 kts | 202° |
| 2026-05-06 14:49 | 48.21949 | 18.71123 | 15456 ft | 282 kts | 202° |
| 2026-05-06 14:49 | 48.20075 | 18.70068 | 15134 ft | 292 kts | 202° |
| 2026-05-06 14:50 | 48.18180 | 18.69004 | 14781 ft | 286 kts | 202° |
| 2026-05-06 14:50 | 48.16339 | 18.67972 | 14444 ft | 279 kts | 202° |
| 2026-05-06 14:50 | 48.14547 | 18.66970 | 14134 ft | 271 kts | 202° |
| 2026-05-06 14:50 | 48.12799 | 18.65991 | 13842 ft | 265 kts | 202° |
| 2026-05-06 14:51 | 48.11074 | 18.65025 | 13543 ft | 264 kts | 202° |
| 2026-05-06 14:51 | 48.09349 | 18.64059 | 13222 ft | 268 kts | 202° |
| 2026-05-06 14:51 | 48.07567 | 18.63061 | 12923 ft | 280 kts | 202° |
| 2026-05-06 14:51 | 48.05737 | 18.62038 | 12578 ft | 279 kts | 202° |
| 2026-05-06 14:52 | 48.03947 | 18.61040 | 12247 ft | 270 kts | 201° |
| 2026-05-06 14:52 | 48.02219 | 18.60078 | 11963 ft | 262 kts | 202° |
| 2026-05-06 14:52 | 48.00510 | 18.59127 | 11680 ft | 263 kts | 201° |
| 2026-05-06 14:52 | 47.98714 | 18.58539 | 11371 ft | 271 kts | 181° |
| 2026-05-06 14:53 | 47.96859 | 18.59176 | 11152 ft | 279 kts | 158° |
| 2026-05-06 14:53 | 47.95269 | 18.60900 | 10893 ft | 289 kts | 138° |
| 2026-05-06 14:53 | 47.93896 | 18.63110 | 10605 ft | 292 kts | 136° |
| 2026-05-06 14:53 | 47.92551 | 18.65375 | 10289 ft | 291 kts | 135° |
| 2026-05-06 14:54 | 47.91219 | 18.67631 | 10081 ft | 286 kts | 135° |
| 2026-05-06 14:54 | 47.89931 | 18.69806 | 10005 ft | 277 kts | 136° |
| 2026-05-06 14:54 | 47.88659 | 18.71940 | 9744 ft | 275 kts | 136° |
| 2026-05-06 14:54 | 47.87387 | 18.74058 | 9465 ft | 273 kts | 136° |
| 2026-05-06 14:55 | 47.86119 | 18.76161 | 9171 ft | 272 kts | 136° |
| 2026-05-06 14:55 | 47.84850 | 18.78243 | 8872 ft | 270 kts | 140° |
| 2026-05-06 14:55 | 47.83332 | 18.79823 | 8570 ft | 264 kts | 156° |
| 2026-05-06 14:55 | 47.81704 | 18.81040 | 8352 ft | 261 kts | 158° |
| 2026-05-06 14:56 | 47.80067 | 18.82199 | 8075 ft | 260 kts | 158° |
| 2026-05-06 14:56 | 47.78452 | 18.83354 | 7691 ft | 256 kts | 158° |
| 2026-05-06 14:56 | 47.76846 | 18.84523 | 7207 ft | 257 kts | 158° |
| 2026-05-06 14:56 | 47.75251 | 18.85702 | 6832 ft | 254 kts | 158° |
| 2026-05-06 14:57 | 47.73706 | 18.86856 | 6434 ft | 252 kts | 158° |
| 2026-05-06 14:57 | 47.72123 | 18.88046 | 6026 ft | 251 kts | 158° |
| 2026-05-06 14:57 | 47.70593 | 18.89201 | 5729 ft | 246 kts | 157° |
| 2026-05-06 14:57 | 47.69088 | 18.90338 | 5557 ft | 241 kts | 158° |
| 2026-05-06 14:58 | 47.67613 | 18.91454 | 5401 ft | 236 kts | 158° |
| 2026-05-06 14:58 | 47.66174 | 18.92543 | 5291 ft | 229 kts | 158° |
| 2026-05-06 14:58 | 47.64775 | 18.93598 | 5207 ft | 223 kts | 159° |
| 2026-05-06 14:58 | 47.63406 | 18.94633 | 5123 ft | 218 kts | 159° |
| 2026-05-06 14:59 | 47.62049 | 18.95658 | 4902 ft | 219 kts | 158° |
| 2026-05-06 14:59 | 47.60692 | 18.96686 | 4680 ft | 220 kts | 155° |
| 2026-05-06 14:59 | 47.59495 | 18.98172 | 4433 ft | 230 kts | 136° |
| 2026-05-06 14:59 | 47.58442 | 18.99974 | 4189 ft | 233 kts | 136° |
| 2026-05-06 15:00 | 47.57356 | 19.01770 | 3935 ft | 235 kts | 137° |
| 2026-05-06 15:00 | 47.56253 | 19.03569 | 3676 ft | 236 kts | 137° |
| 2026-05-06 15:00 | 47.55156 | 19.05363 | 3533 ft | 234 kts | 137° |
| 2026-05-06 15:00 | 47.54060 | 19.07204 | 3160 ft | 242 kts | 137° |
| 2026-05-06 15:01 | 47.52917 | 19.09070 | 2798 ft | 246 kts | 137° |
| 2026-05-06 15:01 | 47.51769 | 19.10928 | 2477 ft | 243 kts | 137° |
| 2026-05-06 15:01 | 47.50633 | 19.12758 | 2149 ft | 240 kts | 137° |
| 2026-05-06 15:01 | 47.49522 | 19.14547 | 1857 ft | 232 kts | 136° |
| 2026-05-06 15:02 | 47.48461 | 19.16271 | 1544 ft | 222 kts | 137° |
| 2026-05-06 15:02 | 47.47726 | 19.17462 | 1335 ft | 213 kts | 139° |
| 2026-05-06 15:02 | 47.46842 | 19.18887 | 1059 ft | 198 kts | 138° |
| 2026-05-06 15:02 | 47.45958 | 19.20316 | 824 ft | 180 kts | 137° |
| 2026-05-06 15:03 | 47.45426 | 19.21190 | 675 ft | 166 kts | 137° |
| 2026-05-06 15:03 | 47.44690 | 19.22378 | 458 ft | 147 kts | 140° |
| 2026-05-06 15:03 | 47.44101 | 19.23324 | 453 ft | 95 kts | 130° |
| 2026-05-06 15:03 | 47.43800 | 19.23812 | 454 ft | 30 kts | 129° |
| 2026-05-06 15:04 | 47.43704 | 19.24069 | 452 ft | 28 kts | 108° |
| 2026-05-06 15:04 | 47.43688 | 19.24152 | 453 ft | 0 kts | 103° |
| 2026-05-06 15:05 | 47.43688 | 19.24156 | 454 ft | 2 kts | 103° |
| 2026-05-06 15:05 | 47.43675 | 19.24244 | 455 ft | 15 kts | 103° |
| 2026-05-06 15:05 | 47.43633 | 19.24431 | 456 ft | 21 kts | 115° |
| 2026-05-06 15:05 | 47.43546 | 19.24625 | 455 ft | 24 kts | 132° |
| 2026-05-06 15:06 | 47.43432 | 19.24809 | 455 ft | 24 kts | 132° |
| 2026-05-06 15:06 | 47.43325 | 19.24984 | 456 ft | 23 kts | 125° |
| 2026-05-06 15:06 | 47.43354 | 19.25186 | 456 ft | 22 kts | 42° |
| 2026-05-06 15:06 | 47.43466 | 19.25335 | 456 ft | 21 kts | 42° |
| 2026-05-06 15:07 | 47.43574 | 19.25481 | 456 ft | 21 kts | 42° |
| 2026-05-06 15:07 | 47.43679 | 19.25622 | 456 ft | 20 kts | 42° |
| 2026-05-06 15:07 | 47.43792 | 19.25775 | 455 ft | 25 kts | 47° |
| 2026-05-06 15:07 | 47.43768 | 19.25919 | 456 ft | 11 kts | 130° |
| 2026-05-06 15:08 | 47.43748 | 19.25952 | 456 ft | 7 kts | 132° |
| 2026-05-06 15:08 | 47.43689 | 19.26049 | 456 ft | 16 kts | 125° |
| 2026-05-06 15:08 | 47.43677 | 19.26214 | 456 ft | 16 kts | 88° |
| 2026-05-06 15:08 | 47.43653 | 19.26369 | 456 ft | 16 kts | 128° |
| 2026-05-06 15:09 | 47.43583 | 19.26484 | 457 ft | 14 kts | 133° |
| 2026-05-06 15:09 | 47.43516 | 19.26590 | 456 ft | 14 kts | 132° |
| 2026-05-06 15:09 | 47.43463 | 19.26676 | 457 ft | 6 kts | 132° |
| 2026-05-06 15:09 | 47.43431 | 19.26701 | 457 ft | 5 kts | 203° |
| 2026-05-06 15:10 | 47.43409 | 19.26675 | 457 ft | 2 kts | 222° |
| 2026-05-06 15:10 | 47.43402 | 19.26666 | 457 ft | 1 kts | 222° |
| 2026-05-06 15:10 | 47.43396 | 19.26659 | 457 ft | 1 kts | 222° |
| 2026-05-06 15:10 | 47.43394 | 19.26656 | 457 ft | 0 kts | 222° |
| 2026-05-06 15:11 | 47.43394 | 19.26655 | 457 ft | 0 kts | 222° |